Time;durP1;ratioP1;P1;durP2;ratioP2;P2;SDS_P1;SDS_P2;PMS_P1;PMS_P2;Temp;Humidity;BMP_temperature;BMP_pressure;BME280_temperature;BME280_humidity;BME280_pressure;Samples;Min_cycle;Max_cycle;Signal;HPM_P1;HPM_P2
2022/06/27 00:01:47;;;;;;;4.63;4.32;;;20.70;99.90;;;;;;5016143;28;20225;-88
2022/06/27 00:04:13;;;;;;;4.15;3.85;;;20.60;99.90;;;;;;5014945;28;20178;-89
2022/06/27 00:06:38;;;;;;;4.80;4.50;;;20.70;99.90;;;;;;5019413;28;20198;-88
2022/06/27 00:09:04;;;;;;;5.25;4.88;;;20.80;99.90;;;;;;5017755;28;20193;-89
2022/06/27 00:11:30;;;;;;;5.82;4.80;;;20.80;99.90;;;;;;5007274;28;20301;-89
2022/06/27 00:13:56;;;;;;;5.15;4.75;;;20.80;99.90;;;;;;5018717;28;20314;-88
2022/06/27 00:16:22;;;;;;;5.20;4.85;;;20.90;99.90;;;;;;5012665;28;20188;-88
2022/06/27 00:18:47;;;;;;;5.72;5.20;;;20.90;99.90;;;;;;5002379;28;20675;-89
2022/06/27 00:21:13;;;;;;;5.28;4.93;;;20.70;99.90;;;;;;5013394;28;20224;-90
2022/06/27 00:23:39;;;;;;;4.82;4.53;;;20.40;99.90;;;;;;5022344;28;20195;-89
2022/06/27 00:26:05;;;;;;;5.07;4.70;;;20.30;99.90;;;;;;5045749;28;20177;-89
2022/06/27 00:28:30;;;;;;;5.82;5.45;;;20.20;99.90;;;;;;5008775;28;20186;-89
2022/06/27 00:30:56;;;;;;;5.43;5.03;;;20.10;99.90;;;;;;5019581;28;20188;-89
2022/06/27 00:33:22;;;;;;;5.38;4.95;;;20.00;99.90;;;;;;5017122;28;20551;-88
2022/06/27 00:35:49;;;;;;;5.13;4.72;;;20.10;99.90;;;;;;5002334;28;20208;-90
2022/06/27 00:38:15;;;;;;;4.35;4.10;;;20.40;99.90;;;;;;4994346;28;20240;-89
2022/06/27 00:40:41;;;;;;;4.82;4.53;;;20.80;99.90;;;;;;5019703;28;20278;-88
2022/06/27 00:43:07;;;;;;;4.85;4.45;;;20.70;99.90;;;;;;5020435;28;20565;-90
2022/06/27 00:45:33;;;;;;;4.60;4.22;;;20.70;99.90;;;;;;5022393;28;20178;-89
2022/06/27 00:47:58;;;;;;;4.97;4.68;;;20.60;99.90;;;;;;5022372;28;20185;-89
2022/06/27 00:50:24;;;;;;;4.85;4.00;;;20.30;99.90;;;;;;4998052;28;20247;-89
2022/06/27 00:52:50;;;;;;;4.68;4.03;;;20.10;99.90;;;;;;5024754;28;20209;-89
2022/06/27 00:55:16;;;;;;;4.40;3.97;;;19.80;99.90;;;;;;5022492;28;20216;-90
2022/06/27 00:57:43;;;;;;;3.70;3.38;;;19.60;99.90;;;;;;5023522;28;20683;-90
2022/06/27 01:00:09;;;;;;;3.10;2.90;;;19.50;99.90;;;;;;5023995;28;20195;-88
2022/06/27 01:02:35;;;;;;;3.10;2.92;;;19.50;99.90;;;;;;5023796;28;20778;-88
2022/06/27 01:05:01;;;;;;;3.53;3.33;;;19.50;99.90;;;;;;5022609;28;20252;-88
2022/06/27 01:07:26;;;;;;;3.45;3.30;;;19.70;99.90;;;;;;4990306;28;20279;-88
2022/06/27 01:09:53;;;;;;;3.28;3.17;;;19.70;99.90;;;;;;5021901;28;20279;-88
2022/06/27 01:12:19;;;;;;;2.90;2.80;;;19.80;99.90;;;;;;5022316;28;20259;-89
2022/06/27 01:14:46;;;;;;;3.58;3.38;;;19.90;99.90;;;;;;5022118;28;20283;-88
2022/06/27 01:17:11;;;;;;;3.40;3.22;;;20.10;99.90;;;;;;5010643;28;20200;-88
2022/06/27 01:19:39;;;;;;;3.67;3.47;;;20.20;99.90;;;;;;5024001;28;20189;-88
2022/06/27 01:22:07;;;;;;;3.42;3.20;;;20.30;99.90;;;;;;5020315;28;20216;-87
2022/06/27 01:24:34;;;;;;;3.30;3.17;;;20.40;99.90;;;;;;5022422;28;20179;-88
2022/06/27 01:26:59;;;;;;;3.92;3.65;;;20.40;99.90;;;;;;5021598;28;20850;-87
2022/06/27 01:29:25;;;;;;;3.70;3.47;;;20.40;99.90;;;;;;4993651;28;20198;-90
2022/06/27 01:31:51;;;;;;;3.25;3.05;;;20.50;99.90;;;;;;5022114;28;20228;-88
2022/06/27 01:34:17;;;;;;;3.15;3.03;;;20.70;99.90;;;;;;5021024;28;20190;-87
2022/06/27 01:36:44;;;;;;;3.35;3.15;;;20.80;99.90;;;;;;5021783;28;20261;-89
2022/06/27 01:39:19;;;;;;;3.78;3.58;;;20.70;99.90;;;;;;5018530;28;20269;-88
2022/06/27 01:41:51;;;;;;;3.47;3.17;;;20.50;99.90;;;;;;5016217;28;20255;-89
2022/06/27 01:44:17;;;;;;;3.20;2.90;;;20.30;99.90;;;;;;5024499;28;20190;-88
2022/06/27 01:46:51;;;;;;;3.15;2.85;;;20.40;99.90;;;;;;5021846;28;20185;-88
2022/06/27 01:49:18;;;;;;;3.03;2.90;;;20.40;99.90;;;;;;5018438;28;20240;-87
2022/06/27 01:51:49;;;;;;;2.80;2.70;;;20.40;99.90;;;;;;5022011;28;20217;-90
2022/06/27 01:54:17;;;;;;;3.30;3.00;;;20.30;99.90;;;;;;5021526;28;20194;-88
2022/06/27 01:56:49;;;;;;;3.70;3.50;;;20.30;99.90;;;;;;5020412;28;20388;-90
2022/06/27 01:59:15;;;;;;;3.35;3.22;;;20.30;99.90;;;;;;5026377;28;20196;-90
2022/06/27 02:01:42;;;;;;;3.80;3.40;;;20.50;99.90;;;;;;5040504;28;20305;-89
2022/06/27 02:04:10;;;;;;;3.55;3.22;;;20.60;99.90;;;;;;5020439;28;20180;-89
2022/06/27 02:06:36;;;;;;;3.67;3.47;;;20.80;99.90;;;;;;5021162;28;20178;-88
2022/06/27 02:09:08;;;;;;;3.85;3.65;;;20.90;99.90;;;;;;5004652;28;20188;-87
2022/06/27 02:11:34;;;;;;;3.65;3.45;;;21.00;99.90;;;;;;4998825;28;20217;-87
2022/06/27 02:14:00;;;;;;;3.80;3.42;;;21.10;99.90;;;;;;5018763;28;20276;-88
2022/06/27 02:16:26;;;;;;;3.70;3.35;;;21.10;99.90;;;;;;5007085;28;20249;-87
2022/06/27 02:18:52;;;;;;;4.07;3.88;;;21.10;99.90;;;;;;5028314;28;20176;-87
2022/06/27 02:21:24;;;;;;;4.22;4.03;;;21.20;99.90;;;;;;5023506;28;20247;-88
2022/06/27 02:23:51;;;;;;;3.88;3.67;;;21.20;99.90;;;;;;5022421;28;20223;-87
2022/06/27 02:26:22;;;;;;;4.32;4.13;;;21.20;99.90;;;;;;4999099;28;20186;-89
2022/06/27 02:28:48;;;;;;;4.85;4.60;;;21.20;99.90;;;;;;5020756;28;20192;-87
2022/06/27 02:31:14;;;;;;;4.40;4.10;;;21.10;99.90;;;;;;5018698;28;20923;-87
2022/06/27 02:33:43;;;;;;;4.22;4.03;;;20.50;99.90;;;;;;4988735;28;20202;-87
2022/06/27 02:36:11;;;;;;;3.42;3.22;;;20.20;99.90;;;;;;5013988;28;20190;-88
2022/06/27 02:38:40;;;;;;;3.90;3.45;;;20.10;99.90;;;;;;5002884;28;20286;-87
2022/06/27 02:41:09;;;;;;;3.97;3.45;;;20.20;99.90;;;;;;5021953;28;20209;-87
2022/06/27 02:43:38;;;;;;;3.60;3.30;;;20.30;99.90;;;;;;5022108;28;20255;-88
2022/06/27 02:46:05;;;;;;;3.47;3.28;;;20.50;99.90;;;;;;5020621;28;20686;-88
2022/06/27 02:48:32;;;;;;;3.53;3.33;;;20.40;99.90;;;;;;5010187;28;20191;-88
2022/06/27 02:51:04;;;;;;;4.05;3.50;;;20.20;99.90;;;;;;5003908;28;20182;-88
2022/06/27 02:53:47;;;;;;;3.40;3.10;;;20.10;99.90;;;;;;5020273;28;20261;-87
2022/06/27 02:56:18;;;;;;;3.53;3.22;;;20.10;99.90;;;;;;5016446;28;20277;-87
2022/06/27 02:59:23;;;;;;;4.15;3.85;;;19.80;99.90;;;;;;5021247;28;20187;-87
2022/06/27 03:01:49;;;;;;;4.03;3.72;;;19.70;99.90;;;;;;4928891;29;20224;-88
2022/06/27 03:04:15;;;;;;;3.38;3.17;;;19.70;99.90;;;;;;5004934;28;20201;-87
2022/06/27 03:06:42;;;;;;;3.30;3.10;;;19.70;99.90;;;;;;5019665;28;20231;-87
2022/06/27 03:09:07;;;;;;;3.30;3.10;;;19.70;99.90;;;;;;5019918;28;20196;-87
2022/06/27 03:11:34;;;;;;;3.65;3.40;;;19.70;99.90;;;;;;5017770;28;20304;-88
2022/06/27 03:13:59;;;;;;;4.07;3.50;;;19.70;99.90;;;;;;5022220;28;20189;-88
2022/06/27 03:16:26;;;;;;;3.38;3.17;;;19.70;99.90;;;;;;5019546;28;20232;-87
2022/06/27 03:18:54;;;;;;;3.80;3.50;;;19.60;99.90;;;;;;5020426;28;20184;-87
2022/06/27 03:21:20;;;;;;;3.33;3.15;;;19.60;99.90;;;;;;5018488;28;20225;-86
2022/06/27 03:23:47;;;;;;;3.30;3.10;;;19.70;99.90;;;;;;5000589;28;20256;-88
2022/06/27 03:26:14;;;;;;;3.25;3.00;;;19.70;99.90;;;;;;5019730;28;20218;-87
2022/06/27 03:28:40;;;;;;;7.82;3.95;;;19.80;99.90;;;;;;5019772;28;20181;-87
2022/06/27 03:31:06;;;;;;;3.53;3.08;;;19.70;99.90;;;;;;5023775;28;20186;-88
2022/06/27 03:33:32;;;;;;;3.90;3.60;;;19.80;99.90;;;;;;5001647;28;20193;-86
2022/06/27 03:35:58;;;;;;;4.50;4.20;;;19.60;99.90;;;;;;5019681;28;20834;-87
2022/06/27 03:38:23;;;;;;;3.58;3.38;;;19.50;99.90;;;;;;4990798;28;20196;-87
2022/06/27 03:40:49;;;;;;;3.53;3.20;;;19.50;99.90;;;;;;5020657;28;20192;-88
2022/06/27 03:43:15;;;;;;;3.92;3.60;;;19.50;99.90;;;;;;5014583;28;20222;-89
2022/06/27 03:45:41;;;;;;;3.80;3.60;;;19.70;99.90;;;;;;5019115;28;20181;-88
2022/06/27 03:48:07;;;;;;;3.38;3.17;;;19.70;99.90;;;;;;5020180;28;20197;-89
2022/06/27 03:50:34;;;;;;;4.15;3.85;;;19.80;99.90;;;;;;4995302;28;20218;-90
2022/06/27 03:53:00;;;;;;;4.05;3.75;;;19.70;99.90;;;;;;5002315;28;20205;-89
2022/06/27 03:55:26;;;;;;;3.78;3.55;;;19.60;99.90;;;;;;5016495;28;20188;-89
2022/06/27 03:57:57;;;;;;;3.72;3.42;;;19.40;99.90;;;;;;5002778;28;20288;-90
2022/06/27 04:00:32;;;;;;;3.83;3.47;;;19.40;99.90;;;;;;5018132;28;20185;-90
2022/06/27 04:02:58;;;;;;;3.97;3.60;;;19.30;99.90;;;;;;5003166;28;20227;-89
2022/06/27 04:05:24;;;;;;;3.63;3.42;;;19.30;99.90;;;;;;5018445;28;20194;-91
2022/06/27 04:07:50;;;;;;;5.55;3.90;;;19.50;99.90;;;;;;5003412;28;20693;-94
2022/06/27 04:10:16;;;;;;;4.18;3.97;;;19.40;99.90;;;;;;5029937;28;20232;-90
2022/06/27 04:12:42;;;;;;;5.43;4.30;;;19.40;99.90;;;;;;5024751;28;20240;-88
2022/06/27 04:15:08;;;;;;;4.32;4.13;;;19.40;99.90;;;;;;5014672;28;20193;-90
2022/06/27 04:17:34;;;;;;;4.53;4.18;;;19.30;99.90;;;;;;5018716;28;20204;-90
2022/06/27 04:20:00;;;;;;;4.38;3.97;;;19.30;99.90;;;;;;5019193;28;20240;-90
2022/06/27 04:22:28;;;;;;;4.35;3.95;;;19.40;99.90;;;;;;5019379;28;20248;-89
2022/06/27 04:24:55;;;;;;;4.60;4.30;;;19.50;99.90;;;;;;4998138;28;20176;-88
2022/06/27 04:27:20;;;;;;;4.40;4.03;;;19.70;99.90;;;;;;5015288;28;20268;-89
2022/06/27 04:29:49;;;;;;;4.30;4.00;;;19.70;99.90;;;;;;5018935;28;20264;-88
2022/06/27 04:32:17;;;;;;;4.85;4.20;;;19.80;99.90;;;;;;5003840;28;20283;-88
2022/06/27 04:34:43;;;;;;;4.53;4.18;;;19.80;99.90;;;;;;5019110;28;20244;-88
2022/06/27 04:37:10;;;;;;;4.53;4.22;;;19.80;99.90;;;;;;5019165;28;20275;-89
2022/06/27 04:39:36;;;;;;;4.65;4.35;;;19.80;99.90;;;;;;5017891;28;20185;-88
2022/06/27 04:42:02;;;;;;;4.78;4.47;;;19.80;99.90;;;;;;4999186;28;20220;-89
2022/06/27 04:44:28;;;;;;;4.45;4.15;;;19.70;99.90;;;;;;5017523;28;20181;-87
2022/06/27 04:46:54;;;;;;;4.80;4.50;;;19.60;99.90;;;;;;5020581;28;20251;-89
2022/06/27 04:49:19;;;;;;;4.90;4.57;;;19.60;99.90;;;;;;5020668;28;20184;-88
2022/06/27 04:51:49;;;;;;;5.28;4.72;;;19.70;99.90;;;;;;5018710;28;20217;-89
2022/06/27 04:54:16;;;;;;;6.60;4.90;;;19.70;99.90;;;;;;5019030;28;20181;-88
2022/06/27 04:56:43;;;;;;;8.30;4.68;;;19.80;99.90;;;;;;4998263;28;20190;-89
2022/06/27 04:59:09;;;;;;;4.80;4.40;;;19.80;99.90;;;;;;5019351;28;20189;-88
2022/06/27 05:01:36;;;;;;;4.63;4.22;;;19.80;99.90;;;;;;4987405;28;20223;-87
2022/06/27 05:04:02;;;;;;;5.03;4.72;;;19.90;99.90;;;;;;5011065;28;20609;-87
2022/06/27 05:06:28;;;;;;;4.95;4.60;;;19.80;99.90;;;;;;5008002;28;20177;-87
2022/06/27 05:08:54;;;;;;;5.00;4.50;;;19.80;99.90;;;;;;5021494;28;20184;-88
2022/06/27 05:11:20;;;;;;;5.10;4.60;;;19.70;99.90;;;;;;5020738;28;20225;-88
2022/06/27 05:13:46;;;;;;;6.10;4.90;;;19.60;99.90;;;;;;5025256;28;20196;-91
2022/06/27 05:16:12;;;;;;;4.85;4.40;;;19.60;99.90;;;;;;5009806;28;20417;-90
2022/06/27 05:18:38;;;;;;;5.35;4.85;;;19.60;99.90;;;;;;5024432;28;20598;-89
2022/06/27 05:21:03;;;;;;;5.63;5.13;;;19.50;99.90;;;;;;5025677;28;20323;-89
2022/06/27 05:23:29;;;;;;;5.25;4.95;;;19.50;99.90;;;;;;5022902;28;20189;-89
2022/06/27 05:25:55;;;;;;;4.93;4.63;;;19.50;99.90;;;;;;5018373;28;20185;-89
2022/06/27 05:28:21;;;;;;;5.20;4.80;;;19.60;99.90;;;;;;5024648;28;20173;-89
2022/06/27 05:30:47;;;;;;;6.13;5.45;;;19.60;99.90;;;;;;5025953;28;20185;-88
2022/06/27 05:33:13;;;;;;;6.57;5.45;;;19.40;99.90;;;;;;5012600;28;20244;-88
2022/06/27 05:35:39;;;;;;;5.53;4.78;;;19.40;99.90;;;;;;5016605;28;20285;-89
2022/06/27 05:38:04;;;;;;;5.72;5.32;;;19.40;99.90;;;;;;5015832;28;20256;-89
2022/06/27 05:40:31;;;;;;;6.90;6.35;;;19.50;99.90;;;;;;5037041;28;20184;-90
2022/06/27 05:42:57;;;;;;;5.53;5.20;;;19.40;99.90;;;;;;5034246;28;20233;-90
2022/06/27 05:45:23;;;;;;;6.00;5.55;;;19.50;99.90;;;;;;5012559;28;20642;-88
2022/06/27 05:47:57;;;;;;;6.20;5.70;;;19.60;99.90;;;;;;5015167;28;20206;-90
2022/06/27 05:50:23;;;;;;;6.38;5.97;;;19.60;99.90;;;;;;5013011;28;20177;-88
2022/06/27 05:52:49;;;;;;;7.43;6.75;;;19.60;99.90;;;;;;5012231;28;20228;-88
2022/06/27 05:55:15;;;;;;;7.85;7.15;;;19.60;99.90;;;;;;4994965;28;20201;-88
2022/06/27 05:57:41;;;;;;;7.32;6.88;;;19.60;99.90;;;;;;5012963;28;20213;-88
2022/06/27 06:00:08;;;;;;;8.05;7.38;;;19.50;99.90;;;;;;5013453;28;20217;-88
2022/06/27 06:02:34;;;;;;;8.00;7.50;;;19.50;99.90;;;;;;5014617;28;20219;-90
2022/06/27 06:05:00;;;;;;;8.55;7.82;;;19.50;99.90;;;;;;5013418;28;20264;-89
2022/06/27 06:07:25;;;;;;;8.30;7.80;;;19.60;99.90;;;;;;5013426;28;20213;-90
2022/06/27 06:09:52;;;;;;;8.68;8.07;;;19.60;99.90;;;;;;5013970;28;20681;-89
2022/06/27 06:12:18;;;;;;;8.80;8.20;;;19.50;99.90;;;;;;4994435;28;20213;-90
2022/06/27 06:14:46;;;;;;;8.48;7.78;;;19.50;99.90;;;;;;5013376;28;20192;-92
2022/06/27 06:17:12;;;;;;;9.10;7.82;;;19.60;99.90;;;;;;4994636;28;20543;-91
2022/06/27 06:19:38;;;;;;;8.43;7.88;;;19.50;99.90;;;;;;4994814;28;20205;-90
2022/06/27 06:22:05;;;;;;;8.05;7.45;;;19.50;99.90;;;;;;5011792;28;20202;-91
2022/06/27 06:24:31;;;;;;;8.23;7.72;;;19.60;99.90;;;;;;5007993;28;20190;-90
2022/06/27 06:27:00;;;;;;;8.13;7.72;;;19.60;99.90;;;;;;5009622;28;20673;-89
2022/06/27 06:29:26;;;;;;;8.88;7.95;;;19.70;99.90;;;;;;4974119;28;20217;-88
2022/06/27 06:31:51;;;;;;;8.38;7.65;;;19.60;99.90;;;;;;4994759;28;20243;-88
2022/06/27 06:34:17;;;;;;;7.90;7.30;;;19.60;99.90;;;;;;5012428;28;20697;-88
2022/06/27 06:36:44;;;;;;;8.70;6.25;;;19.60;99.90;;;;;;5024648;28;20190;-89
2022/06/27 06:39:11;;;;;;;7.43;6.93;;;19.60;99.90;;;;;;5027275;28;20803;-89
2022/06/27 06:41:39;;;;;;;319.25;219.43;;;19.70;99.90;;;;;;5033274;28;20214;-88
2022/06/27 06:44:05;;;;;;;13.77;13.07;;;19.70;99.90;;;;;;5012490;28;20186;-89
2022/06/27 06:46:33;;;;;;;12.63;11.90;;;19.80;99.90;;;;;;5011985;28;20597;-89
2022/06/27 06:49:02;;;;;;;13.88;13.23;;;19.70;99.90;;;;;;5012776;28;20193;-90
2022/06/27 06:51:31;;;;;;;14.27;13.57;;;19.70;99.90;;;;;;5010567;28;20205;-89
2022/06/27 06:53:58;;;;;;;15.27;14.48;;;19.80;99.90;;;;;;5011831;28;20189;-90
2022/06/27 06:56:24;;;;;;;16.73;16.02;;;19.90;99.90;;;;;;5011096;28;20181;-90
2022/06/27 06:58:50;;;;;;;17.15;15.88;;;19.80;99.90;;;;;;5010192;28;20194;-91
2022/06/27 07:01:16;;;;;;;17.23;16.42;;;19.70;99.90;;;;;;5009293;28;20220;-90
2022/06/27 07:03:42;;;;;;;16.73;16.02;;;19.70;99.90;;;;;;5011130;28;20689;-91
2022/06/27 07:06:09;;;;;;;18.30;17.60;;;19.70;99.90;;;;;;5010453;28;20620;-89
2022/06/27 07:08:39;;;;;;;17.27;16.42;;;19.70;99.90;;;;;;5012752;28;20202;-90
2022/06/27 07:11:05;;;;;;;17.83;17.02;;;19.80;99.90;;;;;;5011516;28;20241;-90
2022/06/27 07:13:30;;;;;;;17.45;16.67;;;19.90;99.90;;;;;;5010743;28;20663;-89
2022/06/27 07:15:56;;;;;;;18.02;17.23;;;19.80;99.90;;;;;;5010181;28;20614;-88
2022/06/27 07:18:22;;;;;;;17.67;16.85;;;19.80;99.90;;;;;;5012642;28;20194;-88
2022/06/27 07:20:47;;;;;;;19.08;17.98;;;19.90;99.90;;;;;;4993039;28;20201;-89
2022/06/27 07:23:13;;;;;;;16.48;15.45;;;19.80;99.90;;;;;;5011450;28;20217;-89
2022/06/27 07:25:39;;;;;;;17.23;16.33;;;19.80;99.90;;;;;;5011289;28;20189;-89
2022/06/27 07:28:07;;;;;;;17.50;16.55;;;19.80;99.90;;;;;;5011957;28;20197;-88
2022/06/27 07:30:32;;;;;;;16.60;15.70;;;19.80;99.90;;;;;;5012202;28;20224;-89
2022/06/27 07:32:58;;;;;;;17.15;16.02;;;19.70;99.90;;;;;;5011344;28;20221;-89
2022/06/27 07:35:24;;;;;;;15.95;15.07;;;19.60;99.90;;;;;;5010947;28;20194;-88
2022/06/27 07:37:51;;;;;;;15.02;14.13;;;19.70;99.90;;;;;;5012858;28;20792;-89
2022/06/27 07:40:22;;;;;;;16.75;15.75;;;19.60;99.90;;;;;;4994692;28;20245;-88
2022/06/27 07:42:50;;;;;;;16.60;15.50;;;19.60;99.90;;;;;;5011250;28;20217;-89
2022/06/27 07:45:18;;;;;;;17.02;16.02;;;19.70;99.90;;;;;;5010956;28;20199;-89
2022/06/27 07:47:46;;;;;;;17.95;16.90;;;19.70;99.90;;;;;;5011589;28;20188;-89
2022/06/27 07:50:36;;;;;;;18.33;17.00;;;19.80;99.90;;;;;;5010977;28;20275;-88
2022/06/27 07:53:11;;;;;;;16.98;15.90;;;19.90;99.90;;;;;;5011048;28;20620;-89
2022/06/27 07:55:39;;;;;;;18.40;17.05;;;19.90;99.90;;;;;;4995383;28;20185;-88
2022/06/27 07:58:07;;;;;;;16.02;15.23;;;19.80;99.90;;;;;;5011023;28;20837;-88
2022/06/27 08:00:33;;;;;;;16.02;15.05;;;19.80;99.90;;;;;;5011821;28;20256;-90
2022/06/27 08:03:36;;;;;;;14.63;13.82;;;19.80;99.90;;;;;;4992753;28;20220;-89
2022/06/27 08:05:45;;;;;;;16.70;15.77;;;19.90;99.90;;;;;;5010002;28;20213;-88
2022/06/27 08:08:10;;;;;;;16.63;15.48;;;19.80;99.90;;;;;;5012214;28;20280;-88
2022/06/27 08:10:36;;;;;;;18.02;16.92;;;19.60;99.90;;;;;;4992499;28;20724;-89
2022/06/27 08:13:02;;;;;;;18.08;16.88;;;19.60;99.90;;;;;;5011084;28;20260;-89
2022/06/27 08:15:28;;;;;;;18.17;16.98;;;19.60;99.90;;;;;;5011491;28;20197;-90
2022/06/27 08:17:54;;;;;;;17.27;16.27;;;19.60;99.90;;;;;;5010005;28;20557;-90
2022/06/27 08:20:19;;;;;;;17.20;16.30;;;19.60;99.90;;;;;;5010276;28;20195;-90
2022/06/27 08:22:45;;;;;;;18.05;16.67;;;19.70;99.90;;;;;;4990465;28;20673;-89
2022/06/27 08:25:11;;;;;;;19.60;18.17;;;19.80;99.90;;;;;;5009779;28;20721;-89
2022/06/27 08:27:37;;;;;;;19.05;17.88;;;19.90;99.90;;;;;;5009874;28;20189;-89
2022/06/27 08:30:06;;;;;;;19.88;18.88;;;19.80;99.90;;;;;;5010284;28;20201;-89
2022/06/27 08:32:31;;;;;;;20.00;18.90;;;19.80;99.90;;;;;;5009700;28;20220;-88
2022/06/27 08:34:58;;;;;;;17.60;16.55;;;19.90;99.90;;;;;;5010548;28;20189;-89
2022/06/27 08:37:24;;;;;;;17.23;16.33;;;19.90;99.90;;;;;;4993615;28;20193;-88
2022/06/27 08:39:50;;;;;;;17.58;16.48;;;19.80;99.90;;;;;;4971014;28;20491;-88
2022/06/27 08:42:16;;;;;;;16.98;15.98;;;19.80;99.90;;;;;;4967939;28;20567;-88
2022/06/27 08:44:41;;;;;;;16.00;14.90;;;19.80;99.90;;;;;;5008535;28;20189;-89
2022/06/27 08:47:07;;;;;;;16.90;15.90;;;19.70;99.90;;;;;;5009271;28;20193;-89
2022/06/27 08:49:33;;;;;;;15.95;14.95;;;19.70;99.90;;;;;;5010617;28;20177;-89
2022/06/27 08:52:00;;;;;;;17.02;15.82;;;19.80;99.90;;;;;;5011254;28;20224;-90
2022/06/27 08:54:28;;;;;;;16.70;15.60;;;19.90;99.90;;;;;;4989784;28;20225;-90
2022/06/27 08:56:54;;;;;;;18.20;16.88;;;19.80;99.90;;;;;;5009180;28;20189;-91
2022/06/27 08:59:20;;;;;;;17.38;16.27;;;19.90;99.90;;;;;;5012599;28;20569;-90
2022/06/27 09:01:46;;;;;;;16.85;15.85;;;19.90;99.90;;;;;;4988284;28;20248;-89
2022/06/27 09:04:13;;;;;;;17.95;16.92;;;19.80;99.90;;;;;;5011681;28;20217;-88
2022/06/27 09:06:42;;;;;;;16.98;16.00;;;19.70;99.90;;;;;;5011992;28;20185;-89
2022/06/27 09:09:12;;;;;;;18.00;16.92;;;19.70;99.90;;;;;;5011822;28;20189;-89
2022/06/27 09:11:46;;;;;;;15.15;14.25;;;19.60;99.90;;;;;;5010665;28;20591;-89
2022/06/27 09:14:35;;;;;;;16.25;15.15;;;19.60;99.90;;;;;;5024760;28;20177;-89
2022/06/27 09:17:04;;;;;;;17.27;16.27;;;19.60;99.90;;;;;;5014613;28;20250;-90
2022/06/27 09:19:48;;;;;;;15.57;14.68;;;19.60;99.90;;;;;;5035788;28;20275;-89
2022/06/27 09:22:16;;;;;;;16.40;15.45;;;19.70;99.90;;;;;;5016305;28;20217;-88
2022/06/27 09:25:09;;;;;;;18.17;17.08;;;19.80;99.90;;;;;;5010880;28;20178;-89
2022/06/27 09:27:47;;;;;;;19.13;17.98;;;19.90;99.90;;;;;;5014255;28;20186;-88
2022/06/27 09:30:21;;;;;;;18.50;17.30;;;20.20;99.90;;;;;;5012981;28;20182;-87
2022/06/27 09:32:53;;;;;;;17.88;16.98;;;20.50;99.90;;;;;;5012790;28;20214;-87
2022/06/27 09:35:33;;;;;;;17.48;16.38;;;20.60;99.90;;;;;;5013691;28;20182;-87
2022/06/27 09:38:02;;;;;;;17.63;16.65;;;21.00;99.90;;;;;;5012612;28;20260;-88
2022/06/27 09:40:30;;;;;;;17.90;16.90;;;21.10;99.90;;;;;;5013084;28;20199;-88
2022/06/27 09:42:57;;;;;;;18.23;17.13;;;21.10;99.90;;;;;;5012175;28;20228;-86
2022/06/27 09:45:25;;;;;;;17.60;16.65;;;21.00;99.90;;;;;;5009818;28;20193;-87
2022/06/27 09:48:05;;;;;;;17.30;16.25;;;21.20;99.90;;;;;;5012995;28;20178;-87
2022/06/27 09:50:34;;;;;;;17.40;16.40;;;21.40;99.90;;;;;;5011449;28;20175;-87
2022/06/27 09:53:01;;;;;;;17.45;16.35;;;21.60;99.90;;;;;;5011398;28;20205;-85
2022/06/27 09:55:27;;;;;;;17.27;16.08;;;21.60;99.90;;;;;;4990948;28;20196;-87
2022/06/27 09:57:55;;;;;;;17.45;16.42;;;21.70;99.90;;;;;;5011459;28;20566;-86
2022/06/27 10:00:22;;;;;;;17.08;16.08;;;21.50;99.90;;;;;;5014242;28;20188;-86
2022/06/27 10:02:49;;;;;;;17.52;16.33;;;21.20;99.90;;;;;;5011572;28;20227;-87
2022/06/27 10:05:16;;;;;;;16.58;15.52;;;21.20;99.90;;;;;;5012144;28;20655;-87
2022/06/27 10:08:00;;;;;;;18.02;16.70;;;21.00;99.90;;;;;;5013642;28;20182;-86
2022/06/27 10:10:28;;;;;;;15.27;14.32;;;20.80;99.90;;;;;;5014859;28;20210;-87
2022/06/27 10:12:59;;;;;;;16.27;15.25;;;20.50;99.90;;;;;;5019811;28;20340;-87
2022/06/27 10:15:36;;;;;;;15.95;14.85;;;20.50;99.90;;;;;;5014114;28;20732;-86
2022/06/27 10:18:03;;;;;;;17.33;16.02;;;20.50;99.90;;;;;;5011227;28;20569;-87
2022/06/27 10:20:28;;;;;;;17.50;16.38;;;20.60;99.90;;;;;;5016587;28;20213;-86
2022/06/27 10:23:03;;;;;;;19.23;17.85;;;20.50;99.90;;;;;;5018141;28;20245;-87
2022/06/27 10:25:29;;;;;;;17.48;16.25;;;20.50;99.90;;;;;;5015803;28;20690;-87
2022/06/27 10:30:42;;;;;;;18.20;17.00;;;20.80;99.90;;;;;;5015286;28;20196;-87
2022/06/27 10:33:23;;;;;;;17.83;16.60;;;20.80;99.90;;;;;;5013910;28;20301;-87
2022/06/27 10:35:58;;;;;;;17.50;16.20;;;20.80;99.90;;;;;;5014777;28;20540;-87
2022/06/27 10:38:34;;;;;;;18.02;16.80;;;20.70;99.90;;;;;;5015592;28;20223;-87
2022/06/27 10:41:04;;;;;;;16.70;15.48;;;20.70;99.90;;;;;;5013348;28;20280;-87
2022/06/27 10:43:39;;;;;;;17.13;15.93;;;20.70;99.90;;;;;;5014529;28;20192;-86
2022/06/27 10:46:10;;;;;;;17.45;16.15;;;20.60;99.90;;;;;;5013007;28;20956;-86
2022/06/27 10:48:37;;;;;;;16.02;14.73;;;20.50;99.90;;;;;;4997143;28;20192;-86
2022/06/27 10:51:18;;;;;;;18.65;17.20;;;20.50;99.90;;;;;;5015808;28;20247;-87
2022/06/27 10:53:45;;;;;;;16.27;14.93;;;20.50;99.90;;;;;;5012117;28;20224;-87
2022/06/27 10:56:39;;;;;;;16.17;14.88;;;20.60;99.90;;;;;;5011778;28;20205;-86
2022/06/27 10:59:14;;;;;;;16.42;15.23;;;20.50;99.90;;;;;;5012846;28;20177;-86
2022/06/27 11:02:05;;;;;;;14.93;13.73;;;20.50;99.90;;;;;;4993276;28;20220;-86
2022/06/27 11:04:35;;;;;;;15.55;14.35;;;20.50;99.90;;;;;;5002216;28;20260;-86
2022/06/27 11:07:06;;;;;;;17.60;16.20;;;20.50;99.90;;;;;;5014631;28;20204;-86
2022/06/27 11:09:43;;;;;;;16.27;15.02;;;20.30;99.90;;;;;;5011791;28;20289;-86
2022/06/27 11:12:10;;;;;;;16.45;15.25;;;20.40;99.90;;;;;;4993687;28;20629;-86
2022/06/27 11:15:03;;;;;;;17.85;16.65;;;20.30;99.90;;;;;;5021382;28;20182;-86
2022/06/27 11:17:37;;;;;;;17.55;16.38;;;20.20;99.90;;;;;;5006982;28;20194;-86
2022/06/27 11:20:16;;;;;;;15.25;14.23;;;20.40;99.90;;;;;;5031397;28;20169;-86
2022/06/27 11:22:44;;;;;;;15.27;14.25;;;20.50;99.90;;;;;;5017197;28;20242;-86
2022/06/27 11:25:10;;;;;;;14.88;13.88;;;20.60;99.90;;;;;;5010648;28;20973;-86
2022/06/27 11:27:51;;;;;;;15.75;14.75;;;20.70;99.90;;;;;;4993272;28;20190;-88
2022/06/27 11:33:30;;;;;;;12.90;12.07;;;20.80;99.90;;;;;;5015858;28;20247;-89
2022/06/27 11:35:56;;;;;;;13.45;12.70;;;21.00;99.90;;;;;;5011913;28;20228;-88
2022/06/27 11:38:27;;;;;;;13.02;12.32;;;21.00;99.90;;;;;;5013288;28;20197;-86
2022/06/27 11:41:03;;;;;;;13.48;12.48;;;21.10;99.90;;;;;;5013001;28;20187;-86
2022/06/27 11:44:00;;;;;;;11.98;11.27;;;21.20;99.90;;;;;;5010328;28;20761;-85
2022/06/27 11:46:39;;;;;;;12.52;11.82;;;21.40;99.90;;;;;;5010974;28;20188;-87
2022/06/27 11:49:09;;;;;;;14.77;13.98;;;21.50;99.90;;;;;;5019050;28;20722;-86
2022/06/27 11:51:43;;;;;;;13.27;12.43;;;21.40;99.90;;;;;;4993531;28;20232;-85
2022/06/27 11:54:11;;;;;;;13.57;12.77;;;21.60;99.90;;;;;;5021923;28;20199;-85
2022/06/27 11:56:40;;;;;;;13.40;12.73;;;21.60;99.90;;;;;;5022208;28;20189;-85
2022/06/27 11:59:08;;;;;;;13.05;12.45;;;21.80;99.90;;;;;;5023560;28;20195;-85
2022/06/27 12:01:57;;;;;;;14.60;13.80;;;21.80;99.90;;;;;;5022511;28;20221;-86
2022/06/27 12:04:31;;;;;;;12.43;11.77;;;22.00;99.90;;;;;;5024097;28;20263;-85
2022/06/27 12:07:09;;;;;;;10.20;9.63;;;22.20;99.90;;;;;;5025395;28;20297;-86
2022/06/27 12:09:51;;;;;;;10.27;9.63;;;22.30;99.90;;;;;;5023191;28;20267;-87
2022/06/27 12:12:23;;;;;;;9.35;8.80;;;22.60;99.90;;;;;;5007036;28;20205;-86
2022/06/27 12:14:51;;;;;;;11.23;10.63;;;22.80;98.90;;;;;;5024735;28;20181;-87
2022/06/27 12:17:18;;;;;;;9.90;9.40;;;22.90;98.10;;;;;;5026303;28;20248;-86
2022/06/27 12:19:44;;;;;;;9.40;8.93;;;22.90;96.30;;;;;;5005314;28;20193;-86
2022/06/27 12:22:18;;;;;;;9.90;9.10;;;22.90;94.80;;;;;;5020959;28;20208;-84
2022/06/27 12:24:45;;;;;;;9.13;8.73;;;22.70;98.00;;;;;;5018034;28;20677;-85
2022/06/27 12:27:11;;;;;;;9.45;8.82;;;22.70;96.70;;;;;;5016283;28;20186;-86
2022/06/27 12:29:37;;;;;;;9.52;9.02;;;22.50;95.30;;;;;;4998674;28;20645;-84
2022/06/27 12:32:04;;;;;;;9.93;9.52;;;22.50;94.90;;;;;;5021242;28;20220;-85
2022/06/27 12:34:30;;;;;;;10.63;10.13;;;22.50;94.90;;;;;;5020177;28;20185;-85
2022/06/27 12:36:56;;;;;;;9.15;8.65;;;22.40;95.20;;;;;;5000981;28;20563;-86
2022/06/27 12:39:23;;;;;;;8.15;7.75;;;22.50;93.10;;;;;;5003812;28;20223;-85
2022/06/27 12:41:50;;;;;;;9.05;8.57;;;22.30;89.50;;;;;;4992352;28;20240;-86
2022/06/27 12:44:16;;;;;;;8.15;7.75;;;22.10;92.90;;;;;;5026561;28;20193;-86
2022/06/27 12:46:42;;;;;;;8.10;7.60;;;22.10;92.50;;;;;;5006101;28;20251;-85
2022/06/27 12:49:08;;;;;;;9.43;8.75;;;22.10;89.60;;;;;;5024261;28;20217;-84
2022/06/27 12:51:34;;;;;;;8.02;7.63;;;22.10;91.30;;;;;;5000528;28;20223;-87